Ardmore Seamaster — V7UU8 — position and weather

sailwx.info

Track history (hours):
 
Tides and Currents Weather Stations Pressure Air Temp Water Temp Dewpoint Dewpoint Depression Visibility Wind Speed Wind Dir Waves Ship Positions

Ardmore Seamaster

Last reported at 2017-Feb-26 19:33 UTC. Time now 2017-Feb-28 17:20 UTC.
Position N 09°13' W 079°56'.

Length 179 m; draft 11.3 m.

Type: Tanker. MMSI: 538004102.

Date/timePositionNaut miles runAvg speedWind from/ knotsBaromVisibWave heightAir tempDewpointWater temp
2017-Feb-26 19:33N 09°13' W 079°56'0 0.0
2017-Feb-26 01:28N 09°13' W 079°56'0 0.0
2017-Feb-25 22:15N 09°13' W 079°56'0 0.0
2017-Feb-25 21:19N 09°13' W 079°56'0 0.0
2017-Feb-25 20:31N 09°13' W 079°56'0 0.0
2017-Feb-25 19:33N 09°13' W 079°56'0 0.0
2017-Feb-25 17:28N 09°13' W 079°56'0 0.0
2017-Feb-25 13:28N 09°13' W 079°56'0 0.0
2017-Feb-25 10:24N 09°13' W 079°56'0 0.1
2017-Feb-25 09:33N 09°13' W 079°56'3 3.0
2017-Feb-25 08:33N 09°16' W 079°55'0 0.4
2017-Feb-25 07:34N 09°17' W 079°55'1 0.5
2017-Feb-25 06:32N 09°17' W 079°55'6 5.7
2017-Feb-25 05:34N 09°23' W 079°55'3 3.1
2017-Feb-25 04:32N 09°24' W 079°58'0 0.0
2017-Feb-25 03:32N 09°24' W 079°58'0 0.0
2017-Feb-25 02:26N 09°24' W 079°58'0 0.1
2017-Feb-25 01:32N 09°24' W 079°58'0 0.1
2017-Feb-25 00:29N 09°24' W 079°58'0 0.0
2017-Feb-24 23:32N 09°24' W 079°58'0 0.0
2017-Feb-24 22:33N 09°24' W 079°58'0 0.0
2017-Feb-24 21:33N 09°24' W 079°58'0 0.1
2017-Feb-24 20:32N 09°24' W 079°58'0 0.0
2017-Feb-24 19:33N 09°24' W 079°58'0 0.0
2017-Feb-24 18:32N 09°24' W 079°58'0 0.0
2017-Feb-24 17:33N 09°24' W 079°58'0 0.0
2017-Feb-24 16:33N 09°24' W 079°58'0 0.0
2017-Feb-24 15:33N 09°24' W 079°58'0 0.0
2017-Feb-24 14:33N 09°24' W 079°58'0 0.0
2017-Feb-24 13:33N 09°24' W 079°58'0 0.0
2017-Feb-24 12:33N 09°24' W 079°58'0 0.0
2017-Feb-24 11:33N 09°24' W 079°58'0 0.0
2017-Feb-24 10:33N 09°24' W 079°58'0 0.0
2017-Feb-24 09:33N 09°24' W 079°58'0 0.0
2017-Feb-24 08:33N 09°24' W 079°58'0 0.1
2017-Feb-24 07:33N 09°24' W 079°58'0 0.1
2017-Feb-24 06:33N 09°24' W 079°58'0 0.1
2017-Feb-24 05:33N 09°24' W 079°58'0 0.0
2017-Feb-24 04:33N 09°24' W 079°58'0 0.0
2017-Feb-24 03:33N 09°24' W 079°58'0 0.1
2017-Feb-24 02:33N 09°24' W 079°58'0 0.1
2017-Feb-24 01:33N 09°24' W 079°58'0 0.0
2017-Feb-24 00:33N 09°24' W 079°58'0 0.0
2017-Feb-23 23:33N 09°24' W 079°58'0 0.0
2017-Feb-23 14:27N 09°24' W 079°58'0 0.0
2017-Feb-23 13:33N 09°24' W 079°58'0 0.0
2017-Feb-23 12:33N 09°24' W 079°58'0 0.0
2017-Feb-23 11:33N 09°24' W 079°58'0 0.0
2017-Feb-23 10:32N 09°24' W 079°58'0 0.0
2017-Feb-23 09:33N 09°24' W 079°58'0 0.0
2017-Feb-23 08:33N 09°24' W 079°58'0 0.0
2017-Feb-23 07:33N 09°24' W 079°58'0 0.0
2017-Feb-23 06:33N 09°24' W 079°58'0 0.0
2017-Feb-23 05:33N 09°24' W 079°58'0 0.0
2017-Feb-23 04:33N 09°24' W 079°58'0 0.0
2017-Feb-23 03:31N 09°24' W 079°58'0 0.0
2017-Feb-23 02:33N 09°24' W 079°58'0 0.0
2017-Feb-23 01:33N 09°24' W 079°58'0 0.0
2017-Feb-23 00:33N 09°24' W 079°58'0 0.0
2017-Feb-22 23:33N 09°24' W 079°58'0 0.0
2017-Feb-22 22:33N 09°24' W 079°58'0 0.0
2017-Feb-22 21:33N 09°24' W 079°58'0 0.0
2017-Feb-22 20:33N 09°24' W 079°58'0 0.0
2017-Feb-22 19:33N 09°24' W 079°58'0 0.0
2017-Feb-22 18:33N 09°24' W 079°58'0 0.0
2017-Feb-22 17:33N 09°24' W 079°58'0 0.0
2017-Feb-22 16:33N 09°24' W 079°58'0 0.0
2017-Feb-22 15:33N 09°24' W 079°58'0 0.0
2017-Feb-22 14:33N 09°24' W 079°58'0 0.0
2017-Feb-22 13:33N 09°24' W 079°58'0 0.0
2017-Feb-22 12:33N 09°24' W 079°58'4 4.3
2017-Feb-22 11:33N 09°28' W 079°56'  
2017-Feb-17 08:21N 29°46' W 093°21'7 8.8
2017-Feb-17 07:33N 29°53' W 093°21'7 7.0
2017-Feb-17 06:33N 30°00' W 093°20'6 6.3
2017-Feb-17 05:33N 30°06' W 093°20'5 4.5
2017-Feb-17 04:33N 30°11' W 093°19'0 0.4
2017-Feb-17 03:31N 30°11' W 093°18'0 0.0
2017-Feb-17 02:31N 30°11' W 093°18'0 0.0
2017-Feb-17 01:31N 30°11' W 093°18'0 0.0
2017-Feb-17 00:31N 30°11' W 093°18'0 0.0
2017-Feb-16 23:31N 30°11' W 093°18'0 0.0
2017-Feb-16 22:31N 30°11' W 093°18'0 0.0
2017-Feb-16 21:31N 30°11' W 093°18'0 0.0
2017-Feb-16 20:31N 30°11' W 093°18'  
Track history (hours):
 
Tides and Currents Weather Stations Pressure Air Temp Water Temp Dewpoint Dewpoint Depression Visibility Wind Speed Wind Dir Waves Ship Positions

Ardmore Seamaster

Last reported at 2017-Feb-26 19:33 UTC. Time now 2017-Feb-28 17:20 UTC.
Position N 09°13' W 079°56'.

Length 179 m; draft 11.3 m.

Type: Tanker. MMSI: 538004102.

Date/timePositionNaut miles runAvg speedWind from/ knotsBaromVisibWave heightAir tempDewpointWater temp
2017-Feb-26 19:33N 09°13' W 079°56'0 0.0
2017-Feb-26 01:28N 09°13' W 079°56'0 0.0
2017-Feb-25 22:15N 09°13' W 079°56'0 0.0
2017-Feb-25 21:19N 09°13' W 079°56'0 0.0
2017-Feb-25 20:31N 09°13' W 079°56'0 0.0
2017-Feb-25 19:33N 09°13' W 079°56'0 0.0
2017-Feb-25 17:28N 09°13' W 079°56'0 0.0
2017-Feb-25 13:28N 09°13' W 079°56'0 0.0
2017-Feb-25 10:24N 09°13' W 079°56'0 0.1
2017-Feb-25 09:33N 09°13' W 079°56'3 3.0
2017-Feb-25 08:33N 09°16' W 079°55'0 0.4
2017-Feb-25 07:34N 09°17' W 079°55'1 0.5
2017-Feb-25 06:32N 09°17' W 079°55'6 5.7
2017-Feb-25 05:34N 09°23' W 079°55'3 3.1
2017-Feb-25 04:32N 09°24' W 079°58'0 0.0
2017-Feb-25 03:32N 09°24' W 079°58'0 0.0
2017-Feb-25 02:26N 09°24' W 079°58'0 0.1
2017-Feb-25 01:32N 09°24' W 079°58'0 0.1
2017-Feb-25 00:29N 09°24' W 079°58'0 0.0
2017-Feb-24 23:32N 09°24' W 079°58'0 0.0
2017-Feb-24 22:33N 09°24' W 079°58'0 0.0
2017-Feb-24 21:33N 09°24' W 079°58'0 0.1
2017-Feb-24 20:32N 09°24' W 079°58'0 0.0
2017-Feb-24 19:33N 09°24' W 079°58'0 0.0
2017-Feb-24 18:32N 09°24' W 079°58'0 0.0
2017-Feb-24 17:33N 09°24' W 079°58'0 0.0
2017-Feb-24 16:33N 09°24' W 079°58'0 0.0
2017-Feb-24 15:33N 09°24' W 079°58'0 0.0
2017-Feb-24 14:33N 09°24' W 079°58'0 0.0
2017-Feb-24 13:33N 09°24' W 079°58'0 0.0
2017-Feb-24 12:33N 09°24' W 079°58'0 0.0
2017-Feb-24 11:33N 09°24' W 079°58'0 0.0
2017-Feb-24 10:33N 09°24' W 079°58'0 0.0
2017-Feb-24 09:33N 09°24' W 079°58'0 0.0
2017-Feb-24 08:33N 09°24' W 079°58'0 0.1
2017-Feb-24 07:33N 09°24' W 079°58'0 0.1
2017-Feb-24 06:33N 09°24' W 079°58'0 0.1
2017-Feb-24 05:33N 09°24' W 079°58'0 0.0
2017-Feb-24 04:33N 09°24' W 079°58'0 0.0
2017-Feb-24 03:33N 09°24' W 079°58'0 0.1
2017-Feb-24 02:33N 09°24' W 079°58'0 0.1
2017-Feb-24 01:33N 09°24' W 079°58'0 0.0
2017-Feb-24 00:33N 09°24' W 079°58'0 0.0
2017-Feb-23 23:33N 09°24' W 079°58'0 0.0
2017-Feb-23 14:27N 09°24' W 079°58'0 0.0
2017-Feb-23 13:33N 09°24' W 079°58'0 0.0
2017-Feb-23 12:33N 09°24' W 079°58'0 0.0
2017-Feb-23 11:33N 09°24' W 079°58'0 0.0
2017-Feb-23 10:32N 09°24' W 079°58'0 0.0
2017-Feb-23 09:33N 09°24' W 079°58'0 0.0
2017-Feb-23 08:33N 09°24' W 079°58'0 0.0
2017-Feb-23 07:33N 09°24' W 079°58'0 0.0
2017-Feb-23 06:33N 09°24' W 079°58'0 0.0
2017-Feb-23 05:33N 09°24' W 079°58'0 0.0
2017-Feb-23 04:33N 09°24' W 079°58'0 0.0
2017-Feb-23 03:31N 09°24' W 079°58'0 0.0
2017-Feb-23 02:33N 09°24' W 079°58'0 0.0
2017-Feb-23 01:33N 09°24' W 079°58'0 0.0
2017-Feb-23 00:33N 09°24' W 079°58'0 0.0
2017-Feb-22 23:33N 09°24' W 079°58'0 0.0
2017-Feb-22 22:33N 09°24' W 079°58'0 0.0
2017-Feb-22 21:33N 09°24' W 079°58'0 0.0
2017-Feb-22 20:33N 09°24' W 079°58'0 0.0
2017-Feb-22 19:33N 09°24' W 079°58'0 0.0
2017-Feb-22 18:33N 09°24' W 079°58'0 0.0
2017-Feb-22 17:33N 09°24' W 079°58'0 0.0
2017-Feb-22 16:33N 09°24' W 079°58'0 0.0
2017-Feb-22 15:33N 09°24' W 079°58'0 0.0
2017-Feb-22 14:33N 09°24' W 079°58'0 0.0
2017-Feb-22 13:33N 09°24' W 079°58'0 0.0
2017-Feb-22 12:33N 09°24' W 079°58'4 4.3
2017-Feb-22 11:33N 09°28' W 079°56'  
2017-Feb-17 08:21N 29°46' W 093°21'7 8.8
2017-Feb-17 07:33N 29°53' W 093°21'7 7.0
2017-Feb-17 06:33N 30°00' W 093°20'6 6.3
2017-Feb-17 05:33N 30°06' W 093°20'5 4.5
2017-Feb-17 04:33N 30°11' W 093°19'0 0.4
2017-Feb-17 03:31N 30°11' W 093°18'0 0.0
2017-Feb-17 02:31N 30°11' W 093°18'0 0.0
2017-Feb-17 01:31N 30°11' W 093°18'0 0.0
2017-Feb-17 00:31N 30°11' W 093°18'0 0.0
2017-Feb-16 23:31N 30°11' W 093°18'0 0.0
2017-Feb-16 22:31N 30°11' W 093°18'0 0.0
2017-Feb-16 21:31N 30°11' W 093°18'0 0.0
2017-Feb-16 20:31N 30°11' W 093°18'  

Dump ship's entire track history